0AZ0 weather

Arizona Heart Hospital Heliport
Phoenix, Arizona, United States

Public forecast

Using degrees Fahrenheit for public forecast. Weather courtesy of forecast.io.

Closest aviation weather report (METAR) to Arizona Heart Hospital Heliport

Closest report is Phoenix Sky Harbor International Airport, 3.2 nm (5.8 km) SSE. Retrieved 2020/06/06 23:51 UTC (23 minutes ago):

KPHX 062351Z 29009KT 10SM CLR 33/07 A2971 RMK AO2 SLP042 T03280067 10339 20283 56022

Closest aviation forecast (TAF) to Arizona Heart Hospital Heliport

Closest forecast is Phoenix Sky Harbor International Airport, 3.2 nm (5.8 km) SSE. Retrieved 2020-06-07 00:22 UTC (0 seconds ago):

TAF KPHX 062320Z 0700/0806 25011KT P6SM SKC FM071200 13004KT P6SM SKC FM071700 20007KT P6SM SKC FM072100 25011G21KT P6SM SKC FM080400 27007KT P6SM SKC